Scammon, Kansas
Current Conditions -  °F | °C
As of 8:35 AM on Thursday 27 Nov 2014 (Local Time) from KPTS Reporting Station
Clear Clear  
Wind Chill: 28°   Ceiling: Unl
Heat Index: 28°   Visibility: 7mi
Dew Point: 27°   Wind: 3mph
Humidity: 94%   Direction: 320°NW
Pressure: 30.52"   Gusts: NA
Location:  37.28°N, 94.82°W
Report Text: KPTS 271435Z AUTO 32003KT 7SM CLR M02/M03 A3052 RMK AO2 T10211030
Loading
Personal Weather Stations






























Interactive Weather Map New forecast layout! Learn more

10-Day Weather Forecast

Advertisements
Track Severe Weather on mobile